sensor_id;sensor_type;location;lat;lon;timestamp;P1;durP1;ratioP1;P2;durP2;ratioP2
57077;SDS011;75967;50.970;4.574;2024-01-30T00:01:15;8.88;;;6.60;;
57077;SDS011;75967;50.970;4.574;2024-01-30T00:03:41;9.52;;;6.03;;
57077;SDS011;75967;50.970;4.574;2024-01-30T00:06:07;10.02;;;6.10;;
57077;SDS011;75967;50.970;4.574;2024-01-30T00:08:33;9.18;;;5.90;;
57077;SDS011;75967;50.970;4.574;2024-01-30T00:10:59;9.05;;;5.93;;
57077;SDS011;75967;50.970;4.574;2024-01-30T00:13:26;8.95;;;5.75;;
57077;SDS011;75967;50.970;4.574;2024-01-30T00:15:52;9.20;;;5.82;;
57077;SDS011;75967;50.970;4.574;2024-01-30T00:18:17;10.65;;;5.95;;
57077;SDS011;75967;50.970;4.574;2024-01-30T00:20:43;14.32;;;6.30;;
57077;SDS011;75967;50.970;4.574;2024-01-30T00:23:09;10.63;;;5.35;;
57077;SDS011;75967;50.970;4.574;2024-01-30T00:25:35;9.60;;;5.80;;
57077;SDS011;75967;50.970;4.574;2024-01-30T00:28:01;8.43;;;5.30;;
57077;SDS011;75967;50.970;4.574;2024-01-30T00:30:26;9.40;;;6.22;;
57077;SDS011;75967;50.970;4.574;2024-01-30T00:32:53;10.02;;;5.32;;
57077;SDS011;75967;50.970;4.574;2024-01-30T00:35:19;7.13;;;5.43;;
57077;SDS011;75967;50.970;4.574;2024-01-30T00:37:47;8.90;;;5.25;;
57077;SDS011;75967;50.970;4.574;2024-01-30T00:40:13;7.55;;;5.32;;
57077;SDS011;75967;50.970;4.574;2024-01-30T00:42:43;9.05;;;5.15;;
57077;SDS011;75967;50.970;4.574;2024-01-30T00:45:15;7.60;;;4.70;;
57077;SDS011;75967;50.970;4.574;2024-01-30T00:47:42;6.20;;;4.82;;
57077;SDS011;75967;50.970;4.574;2024-01-30T00:50:08;8.07;;;5.15;;
57077;SDS011;75967;50.970;4.574;2024-01-30T00:52:34;7.70;;;4.63;;
57077;SDS011;75967;50.970;4.574;2024-01-30T00:55:00;6.13;;;4.70;;
57077;SDS011;75967;50.970;4.574;2024-01-30T00:57:26;7.68;;;5.63;;
57077;SDS011;75967;50.970;4.574;2024-01-30T00:59:52;8.20;;;5.20;;
57077;SDS011;75967;50.970;4.574;2024-01-30T01:02:18;11.88;;;5.15;;
57077;SDS011;75967;50.970;4.574;2024-01-30T01:04:44;6.88;;;5.00;;
57077;SDS011;75967;50.970;4.574;2024-01-30T01:07:10;6.95;;;4.93;;
57077;SDS011;75967;50.970;4.574;2024-01-30T01:09:36;12.52;;;5.35;;
57077;SDS011;75967;50.970;4.574;2024-01-30T01:12:02;6.38;;;4.70;;
57077;SDS011;75967;50.970;4.574;2024-01-30T01:14:28;6.80;;;4.60;;
57077;SDS011;75967;50.970;4.574;2024-01-30T01:16:54;6.30;;;4.63;;
57077;SDS011;75967;50.970;4.574;2024-01-30T01:19:20;6.15;;;4.57;;
57077;SDS011;75967;50.970;4.574;2024-01-30T01:21:46;6.32;;;4.75;;
57077;SDS011;75967;50.970;4.574;2024-01-30T01:24:12;6.40;;;4.78;;
57077;SDS011;75967;50.970;4.574;2024-01-30T01:26:37;7.55;;;4.70;;
57077;SDS011;75967;50.970;4.574;2024-01-30T01:29:03;5.30;;;4.28;;
57077;SDS011;75967;50.970;4.574;2024-01-30T01:31:35;10.50;;;5.00;;
57077;SDS011;75967;50.970;4.574;2024-01-30T01:34:04;7.43;;;4.65;;
57077;SDS011;75967;50.970;4.574;2024-01-30T01:36:31;7.20;;;4.75;;
57077;SDS011;75967;50.970;4.574;2024-01-30T01:38:56;9.15;;;4.95;;
57077;SDS011;75967;50.970;4.574;2024-01-30T01:41:22;6.38;;;4.65;;
57077;SDS011;75967;50.970;4.574;2024-01-30T01:43:48;9.07;;;4.93;;
57077;SDS011;75967;50.970;4.574;2024-01-30T01:46:13;8.40;;;5.28;;
57077;SDS011;75967;50.970;4.574;2024-01-30T01:48:39;5.68;;;4.82;;
57077;SDS011;75967;50.970;4.574;2024-01-30T01:51:07;7.97;;;5.13;;
57077;SDS011;75967;50.970;4.574;2024-01-30T01:53:34;7.07;;;5.72;;
57077;SDS011;75967;50.970;4.574;2024-01-30T01:56:00;7.43;;;4.85;;
57077;SDS011;75967;50.970;4.574;2024-01-30T01:58:26;6.88;;;4.40;;
57077;SDS011;75967;50.970;4.574;2024-01-30T02:00:54;8.43;;;5.22;;
57077;SDS011;75967;50.970;4.574;2024-01-30T02:03:21;8.38;;;5.03;;
57077;SDS011;75967;50.970;4.574;2024-01-30T02:05:47;7.93;;;5.10;;
57077;SDS011;75967;50.970;4.574;2024-01-30T02:08:14;7.45;;;5.45;;
57077;SDS011;75967;50.970;4.574;2024-01-30T02:10:40;8.13;;;5.30;;
57077;SDS011;75967;50.970;4.574;2024-01-30T02:13:06;6.72;;;5.20;;
57077;SDS011;75967;50.970;4.574;2024-01-30T02:15:31;5.65;;;4.85;;
57077;SDS011;75967;50.970;4.574;2024-01-30T02:17:57;5.65;;;5.03;;
57077;SDS011;75967;50.970;4.574;2024-01-30T02:20:23;7.80;;;5.32;;
57077;SDS011;75967;50.970;4.574;2024-01-30T02:22:51;7.88;;;5.40;;
57077;SDS011;75967;50.970;4.574;2024-01-30T02:25:19;8.55;;;5.53;;
57077;SDS011;75967;50.970;4.574;2024-01-30T02:27:45;7.03;;;5.97;;
57077;SDS011;75967;50.970;4.574;2024-01-30T02:30:10;7.78;;;5.65;;
57077;SDS011;75967;50.970;4.574;2024-01-30T02:32:36;7.63;;;5.30;;
57077;SDS011;75967;50.970;4.574;2024-01-30T02:35:02;6.28;;;5.15;;
57077;SDS011;75967;50.970;4.574;2024-01-30T02:37:28;6.45;;;4.85;;
57077;SDS011;75967;50.970;4.574;2024-01-30T02:39:54;5.90;;;4.88;;
57077;SDS011;75967;50.970;4.574;2024-01-30T02:42:19;7.43;;;4.90;;
57077;SDS011;75967;50.970;4.574;2024-01-30T02:44:45;7.60;;;4.70;;
57077;SDS011;75967;50.970;4.574;2024-01-30T02:47:10;9.05;;;5.20;;
57077;SDS011;75967;50.970;4.574;2024-01-30T02:49:36;8.02;;;5.35;;
57077;SDS011;75967;50.970;4.574;2024-01-30T02:52:02;10.95;;;5.75;;
57077;SDS011;75967;50.970;4.574;2024-01-30T02:54:28;9.05;;;5.30;;
57077;SDS011;75967;50.970;4.574;2024-01-30T02:56:55;6.60;;;5.60;;
57077;SDS011;75967;50.970;4.574;2024-01-30T02:59:21;8.95;;;5.57;;
57077;SDS011;75967;50.970;4.574;2024-01-30T03:01:46;7.05;;;5.10;;
57077;SDS011;75967;50.970;4.574;2024-01-30T03:04:12;6.18;;;4.82;;
57077;SDS011;75967;50.970;4.574;2024-01-30T03:06:38;6.93;;;5.07;;
57077;SDS011;75967;50.970;4.574;2024-01-30T03:09:09;7.43;;;5.40;;
57077;SDS011;75967;50.970;4.574;2024-01-30T03:11:34;8.23;;;5.25;;
57077;SDS011;75967;50.970;4.574;2024-01-30T03:14:00;10.02;;;5.03;;
57077;SDS011;75967;50.970;4.574;2024-01-30T03:16:26;6.68;;;5.20;;
57077;SDS011;75967;50.970;4.574;2024-01-30T03:18:51;8.50;;;5.30;;
57077;SDS011;75967;50.970;4.574;2024-01-30T03:21:17;5.57;;;4.65;;
57077;SDS011;75967;50.970;4.574;2024-01-30T03:23:43;7.50;;;4.93;;
57077;SDS011;75967;50.970;4.574;2024-01-30T03:26:08;11.40;;;5.05;;
57077;SDS011;75967;50.970;4.574;2024-01-30T03:28:35;7.35;;;4.68;;
57077;SDS011;75967;50.970;4.574;2024-01-30T03:31:01;11.15;;;4.40;;
57077;SDS011;75967;50.970;4.574;2024-01-30T03:33:27;6.70;;;4.90;;
57077;SDS011;75967;50.970;4.574;2024-01-30T03:35:53;5.03;;;4.25;;
57077;SDS011;75967;50.970;4.574;2024-01-30T03:38:18;9.77;;;4.50;;
57077;SDS011;75967;50.970;4.574;2024-01-30T03:40:44;6.45;;;4.78;;
57077;SDS011;75967;50.970;4.574;2024-01-30T03:43:10;10.80;;;5.68;;
57077;SDS011;75967;50.970;4.574;2024-01-30T03:45:35;6.53;;;4.70;;
57077;SDS011;75967;50.970;4.574;2024-01-30T03:48:01;8.95;;;4.57;;
57077;SDS011;75967;50.970;4.574;2024-01-30T03:50:27;6.38;;;4.28;;
57077;SDS011;75967;50.970;4.574;2024-01-30T03:52:53;6.03;;;4.07;;
57077;SDS011;75967;50.970;4.574;2024-01-30T03:55:18;7.15;;;4.50;;
57077;SDS011;75967;50.970;4.574;2024-01-30T03:57:44;5.88;;;4.43;;
57077;SDS011;75967;50.970;4.574;2024-01-30T04:00:10;6.82;;;5.00;;
57077;SDS011;75967;50.970;4.574;2024-01-30T04:02:36;6.70;;;4.53;;
57077;SDS011;75967;50.970;4.574;2024-01-30T04:05:01;7.90;;;4.30;;
57077;SDS011;75967;50.970;4.574;2024-01-30T04:07:27;7.72;;;4.03;;
57077;SDS011;75967;50.970;4.574;2024-01-30T04:09:54;5.65;;;4.40;;
57077;SDS011;75967;50.970;4.574;2024-01-30T04:12:19;7.15;;;4.30;;
57077;SDS011;75967;50.970;4.574;2024-01-30T04:14:45;7.75;;;5.22;;
57077;SDS011;75967;50.970;4.574;2024-01-30T04:17:11;9.10;;;4.28;;
57077;SDS011;75967;50.970;4.574;2024-01-30T04:19:37;8.07;;;4.18;;
57077;SDS011;75967;50.970;4.574;2024-01-30T04:22:03;6.95;;;4.97;;
57077;SDS011;75967;50.970;4.574;2024-01-30T04:24:29;5.15;;;4.15;;
57077;SDS011;75967;50.970;4.574;2024-01-30T04:26:55;8.15;;;4.55;;
57077;SDS011;75967;50.970;4.574;2024-01-30T04:29:20;5.95;;;4.00;;
57077;SDS011;75967;50.970;4.574;2024-01-30T04:31:47;5.95;;;3.92;;
57077;SDS011;75967;50.970;4.574;2024-01-30T04:34:13;6.30;;;4.35;;
57077;SDS011;75967;50.970;4.574;2024-01-30T04:36:38;6.32;;;4.75;;
57077;SDS011;75967;50.970;4.574;2024-01-30T04:39:04;6.95;;;4.72;;
57077;SDS011;75967;50.970;4.574;2024-01-30T04:41:30;10.25;;;5.20;;
57077;SDS011;75967;50.970;4.574;2024-01-30T04:43:57;6.22;;;4.43;;
57077;SDS011;75967;50.970;4.574;2024-01-30T04:46:23;7.05;;;4.47;;
57077;SDS011;75967;50.970;4.574;2024-01-30T04:48:48;6.38;;;5.05;;
57077;SDS011;75967;50.970;4.574;2024-01-30T04:51:14;7.65;;;4.53;;
57077;SDS011;75967;50.970;4.574;2024-01-30T04:53:40;5.95;;;3.92;;
57077;SDS011;75967;50.970;4.574;2024-01-30T04:56:05;7.78;;;4.45;;
57077;SDS011;75967;50.970;4.574;2024-01-30T04:58:31;6.00;;;4.18;;
57077;SDS011;75967;50.970;4.574;2024-01-30T05:00:57;8.40;;;4.68;;
57077;SDS011;75967;50.970;4.574;2024-01-30T05:03:22;9.30;;;5.13;;
57077;SDS011;75967;50.970;4.574;2024-01-30T05:05:49;6.80;;;4.90;;
57077;SDS011;75967;50.970;4.574;2024-01-30T05:08:15;6.88;;;4.90;;
57077;SDS011;75967;50.970;4.574;2024-01-30T05:10:40;8.57;;;4.57;;
57077;SDS011;75967;50.970;4.574;2024-01-30T05:13:06;8.68;;;5.25;;
57077;SDS011;75967;50.970;4.574;2024-01-30T05:15:31;7.15;;;4.15;;
57077;SDS011;75967;50.970;4.574;2024-01-30T05:17:57;9.82;;;4.63;;
57077;SDS011;75967;50.970;4.574;2024-01-30T05:20:23;8.90;;;4.80;;
57077;SDS011;75967;50.970;4.574;2024-01-30T05:22:48;5.32;;;4.40;;
57077;SDS011;75967;50.970;4.574;2024-01-30T05:25:14;8.27;;;5.10;;
57077;SDS011;75967;50.970;4.574;2024-01-30T05:27:40;8.13;;;4.90;;
57077;SDS011;75967;50.970;4.574;2024-01-30T05:30:06;4.72;;;4.20;;
57077;SDS011;75967;50.970;4.574;2024-01-30T05:32:32;7.30;;;5.10;;
57077;SDS011;75967;50.970;4.574;2024-01-30T05:34:58;5.68;;;5.00;;
57077;SDS011;75967;50.970;4.574;2024-01-30T05:37:23;6.43;;;4.60;;
57077;SDS011;75967;50.970;4.574;2024-01-30T05:39:49;6.80;;;4.30;;
57077;SDS011;75967;50.970;4.574;2024-01-30T05:42:15;5.03;;;4.25;;
57077;SDS011;75967;50.970;4.574;2024-01-30T05:44:42;8.55;;;5.03;;
57077;SDS011;75967;50.970;4.574;2024-01-30T05:47:07;10.70;;;4.80;;
57077;SDS011;75967;50.970;4.574;2024-01-30T05:49:33;7.47;;;5.07;;
57077;SDS011;75967;50.970;4.574;2024-01-30T05:51:59;5.85;;;4.50;;
57077;SDS011;75967;50.970;4.574;2024-01-30T05:54:27;5.57;;;4.10;;
57077;SDS011;75967;50.970;4.574;2024-01-30T05:56:53;11.10;;;8.25;;
57077;SDS011;75967;50.970;4.574;2024-01-30T05:59:18;13.52;;;9.90;;
57077;SDS011;75967;50.970;4.574;2024-01-30T06:01:47;18.17;;;15.93;;
57077;SDS011;75967;50.970;4.574;2024-01-30T06:04:13;9.00;;;5.50;;
57077;SDS011;75967;50.970;4.574;2024-01-30T06:06:40;8.68;;;5.68;;
57077;SDS011;75967;50.970;4.574;2024-01-30T06:09:06;10.48;;;5.60;;
57077;SDS011;75967;50.970;4.574;2024-01-30T06:11:34;8.77;;;6.53;;
57077;SDS011;75967;50.970;4.574;2024-01-30T06:14:00;6.82;;;5.53;;
57077;SDS011;75967;50.970;4.574;2024-01-30T06:16:25;8.32;;;7.47;;
57077;SDS011;75967;50.970;4.574;2024-01-30T06:18:54;12.77;;;10.25;;
57077;SDS011;75967;50.970;4.574;2024-01-30T06:21:20;14.05;;;9.93;;
57077;SDS011;75967;50.970;4.574;2024-01-30T06:23:46;10.60;;;6.68;;
57077;SDS011;75967;50.970;4.574;2024-01-30T06:26:12;8.73;;;6.88;;
57077;SDS011;75967;50.970;4.574;2024-01-30T06:28:37;8.63;;;7.13;;
57077;SDS011;75967;50.970;4.574;2024-01-30T06:31:03;10.32;;;8.27;;
57077;SDS011;75967;50.970;4.574;2024-01-30T06:33:29;8.93;;;8.02;;
57077;SDS011;75967;50.970;4.574;2024-01-30T06:35:54;9.65;;;7.97;;
57077;SDS011;75967;50.970;4.574;2024-01-30T06:38:20;6.78;;;5.45;;
57077;SDS011;75967;50.970;4.574;2024-01-30T06:40:46;9.13;;;6.78;;
57077;SDS011;75967;50.970;4.574;2024-01-30T06:43:11;7.75;;;6.05;;
57077;SDS011;75967;50.970;4.574;2024-01-30T06:45:37;7.95;;;5.60;;
57077;SDS011;75967;50.970;4.574;2024-01-30T06:48:03;9.18;;;6.32;;
57077;SDS011;75967;50.970;4.574;2024-01-30T06:50:29;6.72;;;5.60;;
57077;SDS011;75967;50.970;4.574;2024-01-30T06:52:54;6.88;;;5.05;;
57077;SDS011;75967;50.970;4.574;2024-01-30T06:55:20;7.63;;;5.30;;
57077;SDS011;75967;50.970;4.574;2024-01-30T06:57:45;7.75;;;5.40;;
57077;SDS011;75967;50.970;4.574;2024-01-30T07:00:11;11.07;;;5.45;;
57077;SDS011;75967;50.970;4.574;2024-01-30T07:02:38;8.05;;;5.05;;
57077;SDS011;75967;50.970;4.574;2024-01-30T07:05:04;7.95;;;4.50;;
57077;SDS011;75967;50.970;4.574;2024-01-30T07:07:30;11.57;;;5.78;;
57077;SDS011;75967;50.970;4.574;2024-01-30T07:09:55;11.05;;;6.07;;
57077;SDS011;75967;50.970;4.574;2024-01-30T07:12:21;6.82;;;5.45;;
57077;SDS011;75967;50.970;4.574;2024-01-30T07:14:49;10.07;;;5.07;;
57077;SDS011;75967;50.970;4.574;2024-01-30T07:17:15;7.32;;;5.18;;
57077;SDS011;75967;50.970;4.574;2024-01-30T07:19:41;9.60;;;5.53;;
57077;SDS011;75967;50.970;4.574;2024-01-30T07:22:06;6.70;;;4.95;;
57077;SDS011;75967;50.970;4.574;2024-01-30T07:24:33;14.23;;;5.38;;
57077;SDS011;75967;50.970;4.574;2024-01-30T07:26:58;6.80;;;4.88;;
57077;SDS011;75967;50.970;4.574;2024-01-30T07:29:24;10.13;;;5.22;;
57077;SDS011;75967;50.970;4.574;2024-01-30T07:31:50;9.63;;;5.35;;
57077;SDS011;75967;50.970;4.574;2024-01-30T07:34:15;10.32;;;5.65;;
57077;SDS011;75967;50.970;4.574;2024-01-30T07:36:41;9.82;;;5.10;;
57077;SDS011;75967;50.970;4.574;2024-01-30T07:39:07;11.68;;;5.45;;
57077;SDS011;75967;50.970;4.574;2024-01-30T07:41:33;7.97;;;5.78;;
57077;SDS011;75967;50.970;4.574;2024-01-30T07:43:58;10.40;;;6.00;;
57077;SDS011;75967;50.970;4.574;2024-01-30T07:46:24;12.13;;;5.95;;
57077;SDS011;75967;50.970;4.574;2024-01-30T07:48:50;10.10;;;6.22;;
57077;SDS011;75967;50.970;4.574;2024-01-30T07:51:16;12.45;;;6.22;;
57077;SDS011;75967;50.970;4.574;2024-01-30T07:53:41;11.48;;;5.88;;
57077;SDS011;75967;50.970;4.574;2024-01-30T07:56:07;9.13;;;5.78;;
57077;SDS011;75967;50.970;4.574;2024-01-30T07:58:32;11.60;;;6.25;;
57077;SDS011;75967;50.970;4.574;2024-01-30T08:00:58;10.23;;;5.82;;
57077;SDS011;75967;50.970;4.574;2024-01-30T08:03:25;8.63;;;5.60;;
57077;SDS011;75967;50.970;4.574;2024-01-30T08:05:51;8.05;;;5.43;;
57077;SDS011;75967;50.970;4.574;2024-01-30T08:08:17;9.00;;;6.65;;
57077;SDS011;75967;50.970;4.574;2024-01-30T08:10:42;13.55;;;5.90;;
57077;SDS011;75967;50.970;4.574;2024-01-30T08:13:08;10.48;;;5.55;;
57077;SDS011;75967;50.970;4.574;2024-01-30T08:15:34;15.13;;;6.10;;
57077;SDS011;75967;50.970;4.574;2024-01-30T08:18:00;10.25;;;6.05;;
57077;SDS011;75967;50.970;4.574;2024-01-30T08:20:26;10.88;;;6.03;;
57077;SDS011;75967;50.970;4.574;2024-01-30T08:22:51;12.85;;;6.13;;
57077;SDS011;75967;50.970;4.574;2024-01-30T08:25:17;15.38;;;6.90;;
57077;SDS011;75967;50.970;4.574;2024-01-30T08:27:43;12.38;;;6.70;;
57077;SDS011;75967;50.970;4.574;2024-01-30T08:30:10;11.20;;;5.53;;
57077;SDS011;75967;50.970;4.574;2024-01-30T08:32:36;16.38;;;7.20;;
57077;SDS011;75967;50.970;4.574;2024-01-30T08:35:01;13.93;;;6.00;;
57077;SDS011;75967;50.970;4.574;2024-01-30T08:37:30;12.23;;;6.82;;
57077;SDS011;75967;50.970;4.574;2024-01-30T08:39:56;12.52;;;6.03;;
57077;SDS011;75967;50.970;4.574;2024-01-30T08:42:21;8.30;;;5.55;;
57077;SDS011;75967;50.970;4.574;2024-01-30T08:44:48;9.32;;;5.97;;
57077;SDS011;75967;50.970;4.574;2024-01-30T08:47:14;10.93;;;5.85;;
57077;SDS011;75967;50.970;4.574;2024-01-30T08:49:42;9.13;;;6.82;;
57077;SDS011;75967;50.970;4.574;2024-01-30T08:52:09;12.65;;;6.00;;
57077;SDS011;75967;50.970;4.574;2024-01-30T08:54:37;9.82;;;5.80;;
57077;SDS011;75967;50.970;4.574;2024-01-30T08:57:03;12.95;;;6.30;;
57077;SDS011;75967;50.970;4.574;2024-01-30T08:59:29;14.18;;;6.72;;
57077;SDS011;75967;50.970;4.574;2024-01-30T09:01:55;12.82;;;6.15;;
57077;SDS011;75967;50.970;4.574;2024-01-30T09:04:22;12.18;;;5.88;;
57077;SDS011;75967;50.970;4.574;2024-01-30T09:06:48;9.90;;;6.30;;
57077;SDS011;75967;50.970;4.574;2024-01-30T09:09:14;11.55;;;5.97;;
57077;SDS011;75967;50.970;4.574;2024-01-30T09:11:40;13.90;;;6.38;;
57077;SDS011;75967;50.970;4.574;2024-01-30T09:14:06;10.85;;;6.70;;
57077;SDS011;75967;50.970;4.574;2024-01-30T09:16:31;16.50;;;6.93;;
57077;SDS011;75967;50.970;4.574;2024-01-30T09:18:57;17.63;;;7.03;;
57077;SDS011;75967;50.970;4.574;2024-01-30T09:21:23;11.77;;;5.60;;
57077;SDS011;75967;50.970;4.574;2024-01-30T09:23:49;13.10;;;5.47;;
57077;SDS011;75967;50.970;4.574;2024-01-30T09:26:14;12.18;;;6.60;;
57077;SDS011;75967;50.970;4.574;2024-01-30T09:28:40;15.43;;;6.65;;
57077;SDS011;75967;50.970;4.574;2024-01-30T09:31:11;12.32;;;6.40;;
57077;SDS011;75967;50.970;4.574;2024-01-30T09:33:37;13.45;;;8.27;;
57077;SDS011;75967;50.970;4.574;2024-01-30T09:36:03;11.60;;;7.25;;
57077;SDS011;75967;50.970;4.574;2024-01-30T09:38:30;9.20;;;6.10;;
57077;SDS011;75967;50.970;4.574;2024-01-30T09:40:55;14.60;;;6.97;;
57077;SDS011;75967;50.970;4.574;2024-01-30T09:43:24;11.70;;;6.85;;
57077;SDS011;75967;50.970;4.574;2024-01-30T09:45:51;9.18;;;6.72;;
57077;SDS011;75967;50.970;4.574;2024-01-30T09:48:18;12.82;;;6.55;;
57077;SDS011;75967;50.970;4.574;2024-01-30T09:50:44;11.75;;;7.38;;
57077;SDS011;75967;50.970;4.574;2024-01-30T09:53:11;11.10;;;6.65;;
57077;SDS011;75967;50.970;4.574;2024-01-30T09:55:38;11.45;;;6.82;;
57077;SDS011;75967;50.970;4.574;2024-01-30T09:58:08;14.63;;;7.82;;
57077;SDS011;75967;50.970;4.574;2024-01-30T10:00:33;10.98;;;6.53;;
57077;SDS011;75967;50.970;4.574;2024-01-30T10:02:59;14.18;;;7.70;;
57077;SDS011;75967;50.970;4.574;2024-01-30T10:05:27;11.05;;;7.70;;
57077;SDS011;75967;50.970;4.574;2024-01-30T10:07:58;13.88;;;8.85;;
57077;SDS011;75967;50.970;4.574;2024-01-30T10:10:24;11.20;;;7.65;;
57077;SDS011;75967;50.970;4.574;2024-01-30T10:12:50;13.60;;;8.38;;
57077;SDS011;75967;50.970;4.574;2024-01-30T10:15:17;16.65;;;7.97;;
57077;SDS011;75967;50.970;4.574;2024-01-30T10:17:44;15.80;;;8.57;;
57077;SDS011;75967;50.970;4.574;2024-01-30T10:20:10;14.00;;;8.63;;
57077;SDS011;75967;50.970;4.574;2024-01-30T10:22:36;13.68;;;8.15;;
57077;SDS011;75967;50.970;4.574;2024-01-30T10:25:02;12.00;;;7.50;;
57077;SDS011;75967;50.970;4.574;2024-01-30T10:27:28;16.00;;;8.35;;
57077;SDS011;75967;50.970;4.574;2024-01-30T10:29:54;12.68;;;7.82;;
57077;SDS011;75967;50.970;4.574;2024-01-30T10:32:20;17.45;;;7.90;;
57077;SDS011;75967;50.970;4.574;2024-01-30T10:34:46;12.38;;;8.10;;
57077;SDS011;75967;50.970;4.574;2024-01-30T10:37:12;18.55;;;8.48;;
57077;SDS011;75967;50.970;4.574;2024-01-30T10:39:40;11.10;;;8.00;;
57077;SDS011;75967;50.970;4.574;2024-01-30T10:42:10;12.82;;;9.00;;
57077;SDS011;75967;50.970;4.574;2024-01-30T10:45:05;13.70;;;8.35;;
57077;SDS011;75967;50.970;4.574;2024-01-30T10:47:34;13.45;;;8.93;;
57077;SDS011;75967;50.970;4.574;2024-01-30T10:50:04;10.65;;;7.45;;
57077;SDS011;75967;50.970;4.574;2024-01-30T10:52:30;16.52;;;8.63;;
57077;SDS011;75967;50.970;4.574;2024-01-30T10:54:57;12.45;;;6.10;;
57077;SDS011;75967;50.970;4.574;2024-01-30T10:57:24;7.35;;;4.35;;
57077;SDS011;75967;50.970;4.574;2024-01-30T10:59:59;8.55;;;4.78;;
57077;SDS011;75967;50.970;4.574;2024-01-30T11:02:26;9.75;;;3.70;;
57077;SDS011;75967;50.970;4.574;2024-01-30T11:04:59;6.70;;;3.20;;
57077;SDS011;75967;50.970;4.574;2024-01-30T11:07:26;3.85;;;2.15;;
57077;SDS011;75967;50.970;4.574;2024-01-30T11:09:53;2.92;;;1.67;;
57077;SDS011;75967;50.970;4.574;2024-01-30T11:12:28;4.07;;;1.92;;
57077;SDS011;75967;50.970;4.574;2024-01-30T11:17:49;3.40;;;1.58;;
57077;SDS011;75967;50.970;4.574;2024-01-30T11:22:48;2.22;;;1.40;;
57077;SDS011;75967;50.970;4.574;2024-01-30T11:25:17;3.20;;;1.65;;
57077;SDS011;75967;50.970;4.574;2024-01-30T11:27:44;3.30;;;2.38;;
57077;SDS011;75967;50.970;4.574;2024-01-30T11:30:20;5.50;;;1.88;;
57077;SDS011;75967;50.970;4.574;2024-01-30T11:33:06;5.20;;;1.75;;
57077;SDS011;75967;50.970;4.574;2024-01-30T11:35:37;4.22;;;1.60;;
57077;SDS011;75967;50.970;4.574;2024-01-30T11:38:05;2.55;;;1.38;;
57077;SDS011;75967;50.970;4.574;2024-01-30T11:40:32;2.72;;;1.50;;
57077;SDS011;75967;50.970;4.574;2024-01-30T11:42:59;4.18;;;1.67;;
57077;SDS011;75967;50.970;4.574;2024-01-30T11:45:29;2.90;;;1.17;;
57077;SDS011;75967;50.970;4.574;2024-01-30T11:47:55;6.55;;;1.50;;
57077;SDS011;75967;50.970;4.574;2024-01-30T11:50:22;2.83;;;0.95;;
57077;SDS011;75967;50.970;4.574;2024-01-30T11:52:48;2.90;;;0.70;;
57077;SDS011;75967;50.970;4.574;2024-01-30T11:55:17;5.22;;;0.82;;
57077;SDS011;75967;50.970;4.574;2024-01-30T11:57:43;5.15;;;0.70;;
57077;SDS011;75967;50.970;4.574;2024-01-30T12:00:15;1.90;;;0.70;;
57077;SDS011;75967;50.970;4.574;2024-01-30T12:02:43;0.90;;;0.70;;
57077;SDS011;75967;50.970;4.574;2024-01-30T12:05:09;7.43;;;0.90;;
57077;SDS011;75967;50.970;4.574;2024-01-30T12:07:35;2.85;;;0.70;;
57077;SDS011;75967;50.970;4.574;2024-01-30T12:10:02;2.25;;;0.50;;
57077;SDS011;75967;50.970;4.574;2024-01-30T12:12:28;1.63;;;0.93;;
57077;SDS011;75967;50.970;4.574;2024-01-30T12:14:54;4.03;;;0.90;;
57077;SDS011;75967;50.970;4.574;2024-01-30T12:17:30;0.50;;;0.50;;
57077;SDS011;75967;50.970;4.574;2024-01-30T12:20:03;2.83;;;0.60;;
57077;SDS011;75967;50.970;4.574;2024-01-30T12:22:35;3.30;;;0.63;;
57077;SDS011;75967;50.970;4.574;2024-01-30T12:25:04;1.20;;;0.50;;
57077;SDS011;75967;50.970;4.574;2024-01-30T12:27:33;1.83;;;0.70;;
57077;SDS011;75967;50.970;4.574;2024-01-30T12:29:59;2.08;;;0.52;;
57077;SDS011;75967;50.970;4.574;2024-01-30T12:32:25;2.05;;;0.60;;
57077;SDS011;75967;50.970;4.574;2024-01-30T12:34:54;1.20;;;0.63;;
57077;SDS011;75967;50.970;4.574;2024-01-30T12:37:20;1.40;;;0.60;;
57077;SDS011;75967;50.970;4.574;2024-01-30T12:39:48;1.73;;;0.50;;
57077;SDS011;75967;50.970;4.574;2024-01-30T12:42:14;3.88;;;0.80;;
57077;SDS011;75967;50.970;4.574;2024-01-30T12:44:40;2.90;;;0.75;;
57077;SDS011;75967;50.970;4.574;2024-01-30T12:47:08;4.60;;;0.45;;
57077;SDS011;75967;50.970;4.574;2024-01-30T12:49:34;1.48;;;0.40;;
57077;SDS011;75967;50.970;4.574;2024-01-30T12:51:59;0.82;;;0.50;;
57077;SDS011;75967;50.970;4.574;2024-01-30T12:54:25;1.25;;;0.60;;
57077;SDS011;75967;50.970;4.574;2024-01-30T12:56:51;1.00;;;0.47;;
57077;SDS011;75967;50.970;4.574;2024-01-30T12:59:16;2.15;;;0.70;;
57077;SDS011;75967;50.970;4.574;2024-01-30T13:01:42;2.13;;;0.60;;
57077;SDS011;75967;50.970;4.574;2024-01-30T13:04:08;2.17;;;1.08;;
57077;SDS011;75967;50.970;4.574;2024-01-30T13:06:33;2.75;;;0.80;;
57077;SDS011;75967;50.970;4.574;2024-01-30T13:08:59;1.13;;;0.52;;
57077;SDS011;75967;50.970;4.574;2024-01-30T13:11:25;4.38;;;0.50;;
57077;SDS011;75967;50.970;4.574;2024-01-30T13:13:51;2.75;;;0.82;;
57077;SDS011;75967;50.970;4.574;2024-01-30T13:16:16;4.43;;;1.17;;
57077;SDS011;75967;50.970;4.574;2024-01-30T13:18:43;3.08;;;0.70;;
57077;SDS011;75967;50.970;4.574;2024-01-30T13:21:09;2.38;;;0.90;;
57077;SDS011;75967;50.970;4.574;2024-01-30T13:23:34;2.75;;;0.70;;
57077;SDS011;75967;50.970;4.574;2024-01-30T13:26:00;3.55;;;0.80;;
57077;SDS011;75967;50.970;4.574;2024-01-30T13:28:26;4.03;;;0.85;;
57077;SDS011;75967;50.970;4.574;2024-01-30T13:30:52;4.07;;;0.80;;
57077;SDS011;75967;50.970;4.574;2024-01-30T13:33:18;6.35;;;0.88;;
57077;SDS011;75967;50.970;4.574;2024-01-30T13:35:44;3.63;;;1.20;;
57077;SDS011;75967;50.970;4.574;2024-01-30T13:38:09;3.50;;;0.95;;
57077;SDS011;75967;50.970;4.574;2024-01-30T13:40:35;1.88;;;0.90;;
57077;SDS011;75967;50.970;4.574;2024-01-30T13:43:01;4.13;;;0.80;;
57077;SDS011;75967;50.970;4.574;2024-01-30T13:45:26;1.48;;;0.70;;
57077;SDS011;75967;50.970;4.574;2024-01-30T13:47:52;2.80;;;1.00;;
57077;SDS011;75967;50.970;4.574;2024-01-30T13:50:18;3.72;;;0.80;;
57077;SDS011;75967;50.970;4.574;2024-01-30T13:52:43;2.95;;;0.98;;
57077;SDS011;75967;50.970;4.574;2024-01-30T13:55:09;3.45;;;1.67;;
57077;SDS011;75967;50.970;4.574;2024-01-30T13:57:35;1.73;;;0.90;;
57077;SDS011;75967;50.970;4.574;2024-01-30T14:00:05;2.70;;;0.95;;
57077;SDS011;75967;50.970;4.574;2024-01-30T14:02:34;5.55;;;1.60;;
57077;SDS011;75967;50.970;4.574;2024-01-30T14:04:59;2.53;;;1.10;;
57077;SDS011;75967;50.970;4.574;2024-01-30T14:07:25;4.60;;;1.17;;
57077;SDS011;75967;50.970;4.574;2024-01-30T14:09:51;4.90;;;1.70;;
57077;SDS011;75967;50.970;4.574;2024-01-30T14:12:16;4.10;;;2.05;;
57077;SDS011;75967;50.970;4.574;2024-01-30T14:14:42;2.85;;;1.60;;
57077;SDS011;75967;50.970;4.574;2024-01-30T14:17:07;3.42;;;2.00;;
57077;SDS011;75967;50.970;4.574;2024-01-30T14:19:34;4.18;;;1.40;;
57077;SDS011;75967;50.970;4.574;2024-01-30T14:22:00;2.67;;;1.27;;
57077;SDS011;75967;50.970;4.574;2024-01-30T14:24:26;3.45;;;1.33;;
57077;SDS011;75967;50.970;4.574;2024-01-30T14:26:52;3.15;;;2.13;;
57077;SDS011;75967;50.970;4.574;2024-01-30T14:29:18;3.42;;;1.20;;
57077;SDS011;75967;50.970;4.574;2024-01-30T14:31:43;2.50;;;1.08;;
57077;SDS011;75967;50.970;4.574;2024-01-30T14:34:09;3.65;;;1.50;;
57077;SDS011;75967;50.970;4.574;2024-01-30T14:36:36;3.45;;;1.55;;
57077;SDS011;75967;50.970;4.574;2024-01-30T14:39:02;3.92;;;1.23;;
57077;SDS011;75967;50.970;4.574;2024-01-30T14:41:28;5.85;;;1.10;;
57077;SDS011;75967;50.970;4.574;2024-01-30T14:43:54;5.50;;;1.50;;